Digby, Canada
Current Conditions -  °F | °C
As of 2:00 AM on Thursday 23 Oct 2014 (Local Time) from CYZX Reporting Station
Light Rain Light Rain  
Wind Chill: 52°   Ceiling: 1300
Heat Index: 52°   Visibility: 5mi
Dew Point: 50°   Wind: 24mph
Humidity: 94%   Direction: 70°ENE
Pressure: 30.12"   Gusts: 31mph
Location:  44.6°N, 65.75°W
Report Text: CYZX 230500Z 07021G27KT 5SM -RA BR SCT008 OVC013 11/10 A3012 RMK SF4SC4 WNDY HILL 08024G33KT SLP200
Loading
Personal Weather Stations






























Interactive Weather Map
Tropical Storm Tracking
New forecast layout! Learn more

10-Day Weather Forecast

Advertisements
Track Severe Weather on mobile